Terminal Aerodrome Forecast
Issued by NWS

Home | Current Version | Previous Version | Text Only | Print | Product List | Glossary On
Versions: 1 2 3 4 5 6 7 8 9 10 11 12 13 14
920
FTUS42 KILM 150528
TAFCRE
TAF
KCRE 150528Z 1506/1606 VRB03KT P6SM BKN150
     FM151500 24009KT P6SM BKN200
     FM160000 31009KT P6SM BKN140=

USA.gov is the U.S. government's official web portal to all federal, state and local government web resources and services.